createdAt,value
2023-01-30T05:07:22.217Z,100598.66
2023-01-30T05:10:27.115Z,100595.88
2023-01-30T05:13:43.430Z,100593.34
2023-01-30T05:16:46.585Z,100595.97
2023-01-30T05:19:50.355Z,100594.66
2023-01-30T05:22:54.031Z,100593.78
2023-01-30T05:25:58.054Z,100593.72
2023-01-30T05:29:03.164Z,100590.22
2023-01-30T05:32:06.238Z,100597.16
2023-01-30T05:35:09.436Z,100591.97
2023-01-30T05:38:12.047Z,100585.09
2023-01-30T05:41:16.652Z,100581.69
2023-01-30T05:44:19.641Z,100582.59
2023-01-30T05:47:22.617Z,100575.78
2023-01-30T05:50:25.241Z,100575.84
2023-01-30T05:53:31.452Z,100574.19
2023-01-30T05:56:34.253Z,100580.28
2023-01-30T05:59:37.695Z,100589.91
2023-01-30T06:02:40.276Z,100589.97
2023-01-30T06:05:43.134Z,100583.13
2023-01-30T06:08:46.359Z,100588.44
2023-01-30T06:11:49.210Z,100579.03
2023-01-30T06:14:52.054Z,100581.69
2023-01-30T06:17:55.318Z,100591.34
2023-01-30T06:20:57.962Z,100578.47
2023-01-30T06:24:03.415Z,100574.19
2023-01-30T06:27:05.980Z,100574.38
2023-01-30T06:30:09.658Z,100582.34
2023-01-30T06:33:12.419Z,100594.44
2023-01-30T06:36:18.420Z,100586.78
2023-01-30T06:39:25.277Z,100575.03
2023-01-30T06:42:28.192Z,100572.41
2023-01-30T06:45:30.975Z,100559.66
2023-01-30T06:48:33.996Z,100567.31
2023-01-30T06:51:36.658Z,100569.97
2023-01-30T06:54:39.636Z,100565.97
2023-01-30T06:57:43.515Z,100563.75
2023-01-30T07:00:49.011Z,100554.50
2023-01-30T07:03:57.668Z,100559.81
2023-01-30T07:07:02.488Z,100554.59
2023-01-30T07:10:08.841Z,100547.12
2023-01-30T07:13:12.669Z,100559.31
2023-01-30T07:16:15.284Z,100556.84
2023-01-30T07:19:18.187Z,100557.00
2023-01-30T07:22:20.764Z,100555.34
2023-01-30T07:25:26.242Z,100550.41
2023-01-30T07:28:29.157Z,100548.75
2023-01-30T07:31:32.917Z,100540.16
2023-01-30T07:34:35.851Z,100546.22
2023-01-30T07:37:41.532Z,100553.16
2023-01-30T07:40:44.170Z,100547.25
2023-01-30T07:43:49.307Z,100544.78
2023-01-30T07:46:52.010Z,100543.22
2023-01-30T07:49:54.966Z,100538.94
2023-01-30T07:52:57.839Z,100530.28
2023-01-30T07:56:05.978Z,100522.53
2023-01-30T07:59:11.460Z,100532.97
2023-01-30T08:02:14.584Z,100536.53
2023-01-30T08:05:17.707Z,100527.03
2023-01-30T08:08:20.462Z,100527.03
2023-01-30T08:11:23.507Z,100525.31
2023-01-30T08:14:28.784Z,100507.97
2023-01-30T08:17:31.590Z,100500.19
2023-01-30T08:20:34.482Z,100476.75
2023-01-30T08:23:37.577Z,100458.50
2023-01-30T08:26:40.542Z,100450.66
2023-01-30T08:29:44.879Z,100439.31
2023-01-30T08:32:48.211Z,100449.72
2023-01-30T08:35:51.379Z,100452.25
2023-01-30T08:38:54.017Z,100446.16
2023-01-30T08:41:56.945Z,100453.97
2023-01-30T08:44:59.503Z,100450.41
2023-01-30T08:48:05.194Z,100446.06
2023-01-30T08:51:07.840Z,100443.38
2023-01-30T08:54:10.971Z,100443.44
2023-01-30T08:57:14.929Z,100440.78
2023-01-30T09:00:18.910Z,100446.06
2023-01-30T09:03:21.734Z,100448.50
2023-01-30T09:06:26.286Z,100452.84
2023-01-30T09:09:30.239Z,100444.97
2023-01-30T09:12:33.203Z,100445.78
2023-01-30T09:15:38.051Z,100437.03
2023-01-30T09:18:42.925Z,100436.31
2023-01-30T09:21:45.574Z,100435.47
2023-01-30T09:24:49.116Z,100423.13
2023-01-30T09:27:51.891Z,100411.75
2023-01-30T09:30:58.488Z,100412.63
2023-01-30T09:34:01.378Z,100410.78
2023-01-30T09:37:05.139Z,100409.81
2023-01-30T09:40:16.144Z,100398.69
2023-01-30T09:43:31.104Z,100395.25
2023-01-30T09:46:39.672Z,100392.69
2023-01-30T09:49:54.436Z,100386.59
2023-01-30T09:53:23.965Z,100371.94
2023-01-30T09:56:26.887Z,100360.53
2023-01-30T09:59:38.852Z,100367.53
2023-01-30T10:02:52.255Z,100358.16
2023-01-30T10:06:00.873Z,100354.59
2023-01-30T10:09:27.383Z,100358.94
2023-01-30T10:13:01.341Z,100340.19
2023-01-30T10:16:15.922Z,100343.38
2023-01-30T10:19:40.372Z,100337.88
2023-01-30T10:23:02.320Z,100330.56
2023-01-30T10:26:15.586Z,100324.28
2023-01-30T10:29:33.405Z,100325.97
2023-01-30T10:32:46.445Z,100308.37
2023-01-30T10:36:04.584Z,100298.09
2023-01-30T10:39:22.745Z,100288.28
2023-01-30T10:42:37.575Z,100282.13
2023-01-30T10:45:54.531Z,100281.22
2023-01-30T10:49:11.585Z,100272.47
2023-01-30T10:52:36.063Z,100251.75
2023-01-30T10:55:50.985Z,100252.75
2023-01-30T10:59:32.681Z,100239.84
2023-01-30T11:02:53.185Z,100219.94
2023-01-30T11:06:11.750Z,100231.91
2023-01-30T11:09:14.354Z,100220.63
2023-01-30T11:12:17.248Z,100199.63
2023-01-30T11:15:24.785Z,100201.72
2023-01-30T11:19:17.312Z,100194.16
2023-01-30T11:22:00.049Z,100197.81
2023-01-30T11:25:14.911Z,100187.97
2023-01-30T11:28:19.532Z,100175.13
2023-01-30T11:31:40.265Z,100172.53
2023-01-30T11:34:44.547Z,100173.38
2023-01-30T11:37:48.073Z,100158.75
2023-01-30T11:41:02.244Z,100155.03
2023-01-30T11:44:05.736Z,100140.09
2023-01-30T11:47:13.843Z,100126.97
2023-01-30T11:50:30.780Z,100138.25
2023-01-30T11:53:51.061Z,100132.34
2023-01-30T11:56:58.839Z,100119.19
2023-01-30T12:00:01.783Z,100125.59
2023-01-30T12:03:18.217Z,100130.56
2023-01-30T12:06:29.969Z,100125.59
2023-01-30T12:09:35.835Z,100113.25
2023-01-30T12:12:50.290Z,100106.06
2023-01-30T12:16:04.396Z,100101.75
2023-01-30T12:19:36.685Z,100106.13
2023-01-30T12:22:49.721Z,100107.09
2023-01-30T12:26:04.894Z,100077.56
2023-01-30T12:29:19.753Z,100061.09
2023-01-30T12:32:27.264Z,100043.09
2023-01-30T12:35:59.853Z,100038.84
2023-01-30T12:39:32.124Z,100025.06
2023-01-30T12:43:00.697Z,100022.88
2023-01-30T12:46:20.589Z,100024.88
2023-01-30T12:49:52.506Z,100021.53
2023-01-30T12:52:58.513Z,100023.06
2023-01-30T12:56:12.126Z,100045.69
2023-01-30T12:59:22.243Z,100037.84
2023-01-30T13:02:26.463Z,100034.94
2023-01-30T13:05:44.947Z,100032.50
2023-01-30T13:09:15.752Z,100009.00
2023-01-30T13:12:46.187Z,100007.47
2023-01-30T13:15:49.350Z,100007.09
2023-01-30T13:19:01.614Z,99990.81
2023-01-30T13:22:17.563Z,99974.25
2023-01-30T13:25:46.462Z,99969.13
2023-01-30T13:28:57.502Z,99977.25
2023-01-30T13:32:05.284Z,99972.13
2023-01-30T13:35:35.595Z,99977.38
2023-01-30T13:38:49.579Z,99972.81
2023-01-30T13:41:56.580Z,99977.06
2023-01-30T13:45:02.071Z,99975.88
2023-01-30T13:48:26.667Z,99967.22
2023-01-30T13:51:39.380Z,99974.12
2023-01-30T13:55:05.074Z,99972.94
2023-01-30T13:58:17.858Z,99964.97
2023-01-30T14:01:23.079Z,99967.44
2023-01-30T14:04:41.358Z,99963.03
2023-01-30T14:07:45.250Z,99954.16
2023-01-30T14:10:49.879Z,99950.88
2023-01-30T14:13:55.663Z,99953.31
2023-01-30T14:17:18.005Z,99944.47
2023-01-30T14:20:21.450Z,99953.03
2023-01-30T14:23:34.923Z,99958.25
2023-01-30T14:26:55.543Z,99961.97
2023-01-30T14:29:59.002Z,99964.34
2023-01-30T14:33:15.813Z,99969.03
2023-01-30T14:36:35.317Z,99976.72
2023-01-30T14:39:40.334Z,99973.41
2023-01-30T14:42:45.340Z,99975.41
2023-01-30T14:45:52.694Z,99972.78
2023-01-30T14:49:16.259Z,99980.16
2023-01-30T14:52:40.656Z,99979.06
2023-01-30T14:55:43.644Z,99970.50
2023-01-30T14:59:02.801Z,99973.44
2023-01-30T15:02:15.115Z,99963.97
2023-01-30T15:05:40.494Z,99969.25
2023-01-30T15:08:44.706Z,99964.78
2023-01-30T15:11:58.998Z,99958.06
2023-01-30T15:15:19.909Z,99964.88
2023-01-30T15:26:21.668Z,99973.62
2023-01-30T15:29:55.946Z,99957.06
2023-01-30T15:33:29.342Z,99957.00
2023-01-30T15:36:38.825Z,99957.84
2023-01-30T15:39:41.381Z,99972.63
2023-01-30T15:42:52.231Z,99972.69
2023-01-30T15:46:21.314Z,99982.38
2023-01-30T15:49:24.257Z,99985.09
2023-01-30T15:52:44.906Z,99979.25
2023-01-30T15:55:47.956Z,99962.81
2023-01-30T15:58:51.420Z,99967.16
2023-01-30T16:02:01.370Z,99970.78
2023-01-30T16:05:04.776Z,99975.94
2023-01-30T16:08:22.363Z,99994.53
2023-01-30T16:11:38.821Z,99992.59
2023-01-30T16:14:41.548Z,99985.72
2023-01-30T16:17:55.286Z,99979.53
2023-01-30T16:21:03.152Z,99986.56
2023-01-30T16:24:19.507Z,99991.84
2023-01-30T16:27:37.182Z,99992.78
